Saturday, January 20, 2018, 7:26 AM CST
Back to Local

KRSL, Russell Municipal Airport

Location: Russell, KS, United States Lat: 38.867
Local Time: 7:26 AM CST (13:26 GMT) Lon: -98.817
Time Zone: US/Central Elev: 1863 ft

Show me the last for .
Show Decoded

2018-01-20 06:53 METAR KRSL 201253Z AUTO 17010KT 10SM CLR 00/M03 A2973 RMK AO2 SLP077 T00001028
                 TSNO $ =
2018-01-20 05:53 METAR KRSL 201153Z AUTO 16008KT 10SM CLR M03/M06 A2972 RMK AO2 SLP074 T10281056
                 10050 21033 TSNO $ =
2018-01-20 04:53 METAR KRSL 201053Z AUTO 16003KT 10SM CLR M01/M06 A2972 RMK AO2 SLP068 T10061056
                 TSNO $ =
2018-01-20 02:53 METAR KRSL 200853Z AUTO 19008KT 10SM CLR 01/M06 A2971 RMK AO2 SLP061 T00061056
                 53000 =
2018-01-20 00:53 METAR KRSL 200653Z AUTO 19011KT 10SM CLR 05/M06 A2971 RMK AO2 SLP061 T00501056 =
2018-01-19 23:53 METAR KRSL 200553Z AUTO 19011KT 10SM CLR 05/M06 A2970 RMK AO2 SLP063 T00501056
                 10111 20050 401781017 50001 =
2018-01-19 22:53 METAR KRSL 200453Z AUTO 19012KT 10SM CLR 07/M06 A2971 RMK AO2 SLP066 T00671056 =
2018-01-19 21:53 METAR KRSL 200353Z AUTO 19014KT 10SM CLR 08/M06 A2970 RMK AO2 SLP066 T00781061 =
2018-01-19 20:53 METAR KRSL 200253Z AUTO 17012KT 10SM CLR 08/M06 A2970 RMK AO2 SLP067 T00831056
                 51011 =
2018-01-19 19:53 METAR KRSL 200153Z AUTO 17013KT 10SM CLR 09/M06 A2969 RMK AO2 SLP065 T00891056 =
2018-01-19 18:53 METAR KRSL 200053Z AUTO 18010KT 10SM CLR 09/M05 A2969 RMK AO2 SLP063 T00891050 =
2018-01-19 17:53 METAR KRSL 192353Z AUTO 17010KT 10SM CLR 11/M06 A2967 RMK AO2 SLP054 T01111056
                 10178 20100 53004 =
2018-01-19 16:53 METAR KRSL 192253Z AUTO 19014KT 10SM CLR 16/M06 A2966 RMK AO2 SLP046 T01561061 =
2018-01-19 15:53 METAR KRSL 192153Z AUTO 18015KT 10SM CLR 18/M06 A2966 RMK AO2 SLP045 T01781061 =
2018-01-19 14:53 METAR KRSL 192053Z AUTO 19019KT 10SM CLR 18/M06 A2965 RMK AO2 SLP044 T01781061
                 56034 =
2018-01-19 13:53 METAR KRSL 191953Z AUTO 19016KT 10SM CLR 15/M06 A2968 RMK AO2 SLP054 T01501061 =
2018-01-19 12:53 METAR KRSL 191853Z AUTO 19019G23KT 10SM CLR 13/M06 A2971 RMK AO2 SLP064
                 T01331061 =
2018-01-19 11:53 METAR KRSL 191753Z AUTO 18015KT 10SM CLR 10/M07 A2976 RMK AO2 SLP084 T01001067
                 10100 21017 58013 =
2018-01-19 10:53 METAR KRSL 191653Z AUTO 20016KT 10SM CLR 07/M08 A2979 RMK AO2 SLP096 T00721078 =
2018-01-19 09:53 METAR KRSL 191553Z AUTO 21014KT 10SM CLR 03/M07 A2981 RMK AO2 SLP105 T00331072 =
2018-01-19 08:53 METAR KRSL 191453Z AUTO 20013KT 10SM CLR 00/M07 A2980 RMK AO2 SLP104 T00001072
                 58002 =
2018-01-19 07:53 METAR KRSL 191353Z AUTO 20013KT 10SM CLR M02/M08 A2980 RMK AO2 SLP106 T10171078
                 =

Support USWX by starting your Amazon purchase here.